sensor_id;sensor_type;location;lat;lon;timestamp;pressure;altitude;pressure_sealevel;temperature;humidity
46382;BME280;66809;52.974;-2.514;2023-05-06T00:01:52;1005.3689704694951;;;11.18352169862852;43.940197871977254
46382;BME280;66809;52.974;-2.514;2023-05-06T00:03:52;1005.3706546211465;;;11.15267496163862;43.94950304804019
46382;BME280;66809;52.974;-2.514;2023-05-06T00:05:51;1005.3717373302154;;;11.125298318592746;43.95762980537977
46382;BME280;66809;52.974;-2.514;2023-05-06T00:07:51;1005.3735993386025;;;11.090204320421995;43.96183691056491
46382;BME280;66809;52.974;-2.514;2023-05-06T00:09:52;1005.3765713563463;;;11.064911402917835;43.955745231743
46382;BME280;66809;52.974;-2.514;2023-05-06T00:11:51;1005.3805927968037;;;11.036963431159222;43.95218264890276
46382;BME280;66809;52.974;-2.514;2023-05-06T00:13:51;1005.3838487021949;;;11.00597598848488;43.94225324186003
46382;BME280;66809;52.974;-2.514;2023-05-06T00:15:52;1005.3868911338784;;;10.971921769068395;43.93564276962955
46382;BME280;66809;52.974;-2.514;2023-05-06T00:17:52;1005.3879331748545;;;10.942116931384236;43.939525788458035
46382;BME280;66809;52.974;-2.514;2023-05-06T00:19:51;1005.3883897596949;;;10.902029159015944;43.94624023552384
46382;BME280;66809;52.974;-2.514;2023-05-06T00:21:52;1005.3880218374562;;;10.863994434027575;43.95639754854987
46382;BME280;66809;52.974;-2.514;2023-05-06T00:23:51;1005.3880562128263;;;10.833679154994412;43.979625869522664
46382;BME280;66809;52.974;-2.514;2023-05-06T00:25:52;1005.3885756616871;;;10.802640452033694;44.00043078354781
46382;BME280;66809;52.974;-2.514;2023-05-06T00:27:52;1005.3893755063583;;;10.77521760955278;44.01889647809646
46382;BME280;66809;52.974;-2.514;2023-05-06T00:29:52;1005.3898241822224;;;10.763702099063696;44.04364678557292
46382;BME280;66809;52.974;-2.514;2023-05-06T00:31:52;1005.3907645280729;;;10.738544914743267;44.06536083823132
46382;BME280;66809;52.974;-2.514;2023-05-06T00:33:51;1005.3902550567896;;;10.710983895413982;44.09649557057475
46382;BME280;66809;52.974;-2.514;2023-05-06T00:35:52;1005.3879908421069;;;10.706813969742951;44.12462058743052
46382;BME280;66809;52.974;-2.514;2023-05-06T00:37:56;1005.3863287554888;;;10.701060232784473;44.15032585953748
46382;BME280;66809;52.974;-2.514;2023-05-06T00:39:52;1005.3833345828134;;;10.695932860867332;44.17410406193394
46382;BME280;66809;52.974;-2.514;2023-05-06T00:41:51;1005.3794206778629;;;10.696899958635528;44.19770861020736
46382;BME280;66809;52.974;-2.514;2023-05-06T00:43:52;1005.3749366687188;;;10.702454604460025;44.21868354586558
46382;BME280;66809;52.974;-2.514;2023-05-06T00:45:52;1005.3711081704421;;;10.711336480901128;44.24261329337444
46382;BME280;66809;52.974;-2.514;2023-05-06T00:47:51;1005.3686213883283;;;10.712663154946833;44.26548405800707
46382;BME280;66809;52.974;-2.514;2023-05-06T00:49:51;1005.3678957047043;;;10.706647624918213;44.282879338141505
46382;BME280;66809;52.974;-2.514;2023-05-06T00:51:53;1005.3663882387352;;;10.719236911616223;44.2969484841633
46382;BME280;66809;52.974;-2.514;2023-05-06T00:53:51;1005.3636751424107;;;10.722545619905699;44.31318832782525
46382;BME280;66809;52.974;-2.514;2023-05-06T00:55:52;1005.3595721525999;;;10.741940610403658;44.32307125019495
46382;BME280;66809;52.974;-2.514;2023-05-06T00:57:53;1005.3556387919637;;;10.758646069713933;44.333947977794814
46382;BME280;66809;52.974;-2.514;2023-05-06T01:02:22;1005.3108277152763;;;10.563391527170719;44.05341361254626
46382;BME280;66809;52.974;-2.514;2023-05-06T01:04:22;1005.3030496218399;;;10.604869038111874;44.05532012791998
46382;BME280;66809;52.974;-2.514;2023-05-06T01:06:28;1005.293256783631;;;10.671573839343843;44.05712788386223
46382;BME280;66809;52.974;-2.514;2023-05-06T01:08:28;1005.2840046181158;;;10.715819270195688;44.05741950157525
46382;BME280;66809;52.974;-2.514;2023-05-06T01:10:29;1005.2744025386145;;;10.76923144936331;44.06435244923015
46382;BME280;66809;52.974;-2.514;2023-05-06T01:12:28;1005.268004068555;;;10.787795833997277;44.06891550637689
46382;BME280;66809;52.974;-2.514;2023-05-06T01:14:30;1005.2661457764502;;;10.817854343868905;44.07323432412416
46382;BME280;66809;52.974;-2.514;2023-05-06T01:16:24;1005.2652103411795;;;10.835442913550793;44.0843115635656
46382;BME280;66809;52.974;-2.514;2023-05-06T01:18:25;1005.2642707447716;;;10.867929187475907;44.09158333436739
46382;BME280;66809;52.974;-2.514;2023-05-06T01:20:22;1005.2626539566506;;;10.899946590392574;44.09465057139347
46382;BME280;66809;52.974;-2.514;2023-05-06T01:22:22;1005.2604676087918;;;10.918913880852857;44.09528296103528
46382;BME280;66809;52.974;-2.514;2023-05-06T01:24:34;1005.2587876400648;;;10.944695350803132;44.10205662093401
46382;BME280;66809;52.974;-2.514;2023-05-06T01:26:23;1005.2560656135862;;;10.951367560377468;44.11524347819624
46382;BME280;66809;52.974;-2.514;2023-05-06T01:28:22;1005.2530908103527;;;10.97700643336967;44.130662184960165
46382;BME280;66809;52.974;-2.514;2023-05-06T01:30:27;1005.2498781733991;;;10.992328317062334;44.1385866264294
46382;BME280;66809;52.974;-2.514;2023-05-06T01:32:33;1005.2463885552089;;;11.012479837040564;44.15073368916182
46382;BME280;66809;52.974;-2.514;2023-05-06T01:34:27;1005.2429064302963;;;11.014258191917587;44.16439970548602
46382;BME280;66809;52.974;-2.514;2023-05-06T01:36:25;1005.2393141791772;;;11.018808096943223;44.176817993391786
46382;BME280;66809;52.974;-2.514;2023-05-06T01:38:30;1005.2366292728257;;;11.035471169390261;44.18471536046585
46382;BME280;66809;52.974;-2.514;2023-05-06T01:40:25;1005.2340658951081;;;11.050920330575646;44.189287625628474
46382;BME280;66809;52.974;-2.514;2023-05-06T01:42:23;1005.2317167077728;;;11.069427099723823;44.194601920079506
46382;BME280;66809;52.974;-2.514;2023-05-06T01:44:22;1005.230035902127;;;11.082785980173751;44.20466944565795
46382;BME280;66809;52.974;-2.514;2023-05-06T01:46:23;1005.2282718699549;;;11.08745216833261;44.22265981934796
46382;BME280;66809;52.974;-2.514;2023-05-06T01:48:24;1005.2259044243148;;;11.095815099180877;44.237215137609084
46382;BME280;66809;52.974;-2.514;2023-05-06T01:50:22;1005.2216519963503;;;11.113227202129265;44.261419176827275
46382;BME280;66809;52.974;-2.514;2023-05-06T01:52:22;1005.217110696807;;;11.139395638615674;44.28199891732094
46382;BME280;66809;52.974;-2.514;2023-05-06T01:54:22;1005.2121217013893;;;11.177499300023149;44.29601888933286
46382;BME280;66809;52.974;-2.514;2023-05-06T01:56:23;1005.2060712994987;;;11.207196635642498;44.312298685552015
46382;BME280;66809;52.974;-2.514;2023-05-06T01:58:22;1005.2007833830701;;;11.246871493873027;44.32603036100654
46382;BME280;66809;52.974;-2.514;2023-05-06T02:00:22;1005.1953149788611;;;11.277711517883862;44.34084556803734
46382;BME280;66809;52.974;-2.514;2023-05-06T02:02:22;1005.1906715174649;;;11.286456484385427;44.357225092949044
46382;BME280;66809;52.974;-2.514;2023-05-06T02:04:22;1005.1877917635621;;;11.309856445169777;44.372442631813676
46382;BME280;66809;52.974;-2.514;2023-05-06T02:06:22;1005.1863480917134;;;11.319891992249692;44.38462619600125
46382;BME280;66809;52.974;-2.514;2023-05-06T02:08:22;1005.1860089828403;;;11.33699792601093;44.39522766351615
46382;BME280;66809;52.974;-2.514;2023-05-06T02:10:22;1005.1862451423002;;;11.340888567382143;44.4073890401046
46382;BME280;66809;52.974;-2.514;2023-05-06T02:12:22;1005.1851931835073;;;11.35878512816674;44.42022682366849
46382;BME280;66809;52.974;-2.514;2023-05-06T02:14:22;1005.1821002553793;;;11.362281694295074;44.437559720425746
46382;BME280;66809;52.974;-2.514;2023-05-06T02:16:22;1005.1777196956056;;;11.373582571982313;44.45723620862415
46382;BME280;66809;52.974;-2.514;2023-05-06T02:18:22;1005.1733995016442;;;11.377858434930873;44.47788944274652
46382;BME280;66809;52.974;-2.514;2023-05-06T02:20:22;1005.1689944811975;;;11.380378251717259;44.49981030498087
46382;BME280;66809;52.974;-2.514;2023-05-06T02:22:22;1005.1657318340423;;;11.382220432949886;44.520545427039856
46382;BME280;66809;52.974;-2.514;2023-05-06T02:24:22;1005.1625960717719;;;11.375121903256776;44.545873673564
46382;BME280;66809;52.974;-2.514;2023-05-06T02:26:22;1005.1611894965099;;;11.384857876613095;44.569739448279655
46382;BME280;66809;52.974;-2.514;2023-05-06T02:28:22;1005.159516229888;;;11.377826565997411;44.5909500407472
46382;BME280;66809;52.974;-2.514;2023-05-06T02:30:22;1005.1581566548198;;;11.376963257381231;44.61559751473929
46382;BME280;66809;52.974;-2.514;2023-05-06T02:32:22;1005.1565808274242;;;11.37435147780105;44.636341609902374
46382;BME280;66809;52.974;-2.514;2023-05-06T02:34:22;1005.1552559015529;;;11.390193705177648;44.65246660987842
46382;BME280;66809;52.974;-2.514;2023-05-06T02:36:22;1005.155625358965;;;11.40339765780098;44.668186932803366
46382;BME280;66809;52.974;-2.514;2023-05-06T02:38:23;1005.1563326878843;;;11.40816168016313;44.688918614660984
46382;BME280;66809;52.974;-2.514;2023-05-06T02:40:22;1005.1571174990386;;;11.416589045757052;44.711338633366886
46382;BME280;66809;52.974;-2.514;2023-05-06T02:42:22;1005.1583543529067;;;11.42406615103614;44.72141399749611
46382;BME280;66809;52.974;-2.514;2023-05-06T02:44:22;1005.1583458484915;;;11.441786301193206;44.7229726488564
46382;BME280;66809;52.974;-2.514;2023-05-06T02:46:22;1005.1585885464924;;;11.450444754651299;44.710304007782774
46382;BME280;66809;52.974;-2.514;2023-05-06T02:48:23;1005.1596588869736;;;11.458428922083723;44.70732574887272
46382;BME280;66809;52.974;-2.514;2023-05-06T02:50:22;1005.1600310026286;;;11.470654061209908;44.7043446538576
46382;BME280;66809;52.974;-2.514;2023-05-06T02:52:22;1005.1603041208928;;;11.485557369937313;44.70635938430211
46382;BME280;66809;52.974;-2.514;2023-05-06T02:54:21;1005.1590375320636;;;11.493169725727995;44.71032341512413
46382;BME280;66809;52.974;-2.514;2023-05-06T02:56:22;1005.1578663890845;;;11.504964237607204;44.70819799017643
46382;BME280;66809;52.974;-2.514;2023-05-06T02:58:22;1005.156265744948;;;11.507915514914787;44.70823565673777
46382;BME280;66809;52.974;-2.514;2023-05-06T03:00:23;1005.1530425267513;;;11.505819214444386;44.70277521260818
46382;BME280;66809;52.974;-2.514;2023-05-06T03:02:22;1005.1494573621022;;;11.511549489581247;44.70005445770343
46382;BME280;66809;52.974;-2.514;2023-05-06T03:04:22;1005.1449063449542;;;11.51685965835908;44.6933058901516
46382;BME280;66809;52.974;-2.514;2023-05-06T03:06:22;1005.1392870814873;;;11.519019014979104;44.689978218345416
46382;BME280;66809;52.974;-2.514;2023-05-06T03:08:22;1005.132114531444;;;11.523018446019627;44.68734623067154
46382;BME280;66809;52.974;-2.514;2023-05-06T03:10:22;1005.1234499850458;;;11.53446007191823;44.67972029172823
46382;BME280;66809;52.974;-2.514;2023-05-06T03:12:22;1005.1140617680546;;;11.537335734006536;44.67111754021466
46382;BME280;66809;52.974;-2.514;2023-05-06T03:14:22;1005.1049316947986;;;11.55272849952817;44.6617685889588
46382;BME280;66809;52.974;-2.514;2023-05-06T03:16:22;1005.0969635370968;;;11.56747429505352;44.636218622195365
46382;BME280;66809;52.974;-2.514;2023-05-06T03:18:22;1005.0889686782768;;;11.58466513018487;44.61715892873781
46382;BME280;66809;52.974;-2.514;2023-05-06T03:20:22;1005.0818685311092;;;11.600849838412765;44.59782052778734
46382;BME280;66809;52.974;-2.514;2023-05-06T03:22:22;1005.0743504201407;;;11.630910685934746;44.569951094845194
46382;BME280;66809;52.974;-2.514;2023-05-06T03:24:22;1005.0658109829395;;;11.66058715234191;44.52560900863659
46382;BME280;66809;52.974;-2.514;2023-05-06T03:26:22;1005.055412014881;;;11.673146374589964;44.475755361988284
46382;BME280;66809;52.974;-2.514;2023-05-06T03:28:23;1005.0454627954718;;;11.682714421840513;44.430113610143394
46382;BME280;66809;52.974;-2.514;2023-05-06T03:30:22;1005.0348667791791;;;11.7005270140824;44.38572459973784
46382;BME280;66809;52.974;-2.514;2023-05-06T03:32:22;1005.0245050025538;;;11.707923043697047;44.34680866664713
46382;BME280;66809;52.974;-2.514;2023-05-06T03:34:22;1005.0139933385125;;;11.70905318123452;44.31407135970648
46382;BME280;66809;52.974;-2.514;2023-05-06T03:36:22;1005.0004660187412;;;11.714735168483706;44.289188858230354
46382;BME280;66809;52.974;-2.514;2023-05-06T03:38:22;1004.9849087779826;;;11.722263509695164;44.26056104354604
46382;BME280;66809;52.974;-2.514;2023-05-06T03:40:22;1004.9687949882263;;;11.71765284409077;44.23768956996841
46382;BME280;66809;52.974;-2.514;2023-05-06T03:42:22;1004.9520992109254;;;11.712208240030582;44.23677869744852
46382;BME280;66809;52.974;-2.514;2023-05-06T03:44:22;1004.9361987912727;;;11.699847839911607;44.23635371737398
46382;BME280;66809;52.974;-2.514;2023-05-06T03:46:22;1004.9208988234262;;;11.704842881491457;44.242811546993224
46382;BME280;66809;52.974;-2.514;2023-05-06T03:48:22;1004.9050275460296;;;11.710394590246516;44.24330628483487
46382;BME280;66809;52.974;-2.514;2023-05-06T03:50:22;1004.8892649323715;;;11.71993733128954;44.243820646685705
46382;BME280;66809;52.974;-2.514;2023-05-06T03:52:23;1004.8721240689508;;;11.724753906010655;44.23326241149583
46382;BME280;66809;52.974;-2.514;2023-05-06T03:54:22;1004.8560078543437;;;11.733023777897994;44.21378115537903
46382;BME280;66809;52.974;-2.514;2023-05-06T03:56:22;1004.8406757595142;;;11.747080621309761;44.19253166156988
46382;BME280;66809;52.974;-2.514;2023-05-06T03:58:22;1004.8256288113257;;;11.760213224921298;44.169510582387595
46382;BME280;66809;52.974;-2.514;2023-05-06T04:00:22;1004.8132806980834;;;11.77732633010806;44.150511656982125
46382;BME280;66809;52.974;-2.514;2023-05-06T04:02:22;1004.8011016598557;;;11.789080977536718;44.12984017552521
46382;BME280;66809;52.974;-2.514;2023-05-06T04:04:22;1004.789575600958;;;11.793040533815953;44.11475296202675
46382;BME280;66809;52.974;-2.514;2023-05-06T04:06:23;1004.7792109232819;;;11.801400698333419;44.10182648901865
46382;BME280;66809;52.974;-2.514;2023-05-06T04:08:22;1004.7705956265044;;;11.802839599021734;44.0918368046432
46382;BME280;66809;52.974;-2.514;2023-05-06T04:10:22;1004.7641961761717;;;11.807679251912521;44.08007314246235
46382;BME280;66809;52.974;-2.514;2023-05-06T04:12:22;1004.760768739184;;;11.817566483398553;44.07164970033652
46382;BME280;66809;52.974;-2.514;2023-05-06T04:14:21;1004.7576445666292;;;11.82565565193277;44.06645956668433
46382;BME280;66809;52.974;-2.514;2023-05-06T04:16:22;1004.7549633297058;;;11.834429672225637;44.064942855430516
46382;BME280;66809;52.974;-2.514;2023-05-06T04:18:22;1004.7529448544218;;;11.842651306331259;44.038282131942275
46382;BME280;66809;52.974;-2.514;2023-05-06T04:20:22;1004.7512614069788;;;11.843506362249142;44.00964152004624
46382;BME280;66809;52.974;-2.514;2023-05-06T04:22:22;1004.749325676956;;;11.843897153713984;43.98215328297271
46382;BME280;66809;52.974;-2.514;2023-05-06T04:24:22;1004.7486172443062;;;11.848325113664606;43.97027540782812
46382;BME280;66809;52.974;-2.514;2023-05-06T04:26:22;1004.747747078786;;;11.847487035388715;43.965767831290556
46382;BME280;66809;52.974;-2.514;2023-05-06T04:28:22;1004.7474661863052;;;11.871071840010732;43.96057574168211
46382;BME280;66809;52.974;-2.514;2023-05-06T04:30:22;1004.7490940718749;;;11.879070723856325;43.95628127407338
46382;BME280;66809;52.974;-2.514;2023-05-06T04:32:22;1004.7526227809781;;;11.89688748923319;43.95238381636677
46382;BME280;66809;52.974;-2.514;2023-05-06T04:34:22;1004.7558030058174;;;11.906087881167705;43.945445056357165
46382;BME280;66809;52.974;-2.514;2023-05-06T04:36:22;1004.7600799497545;;;11.917466582339273;43.92310762647995
46382;BME280;66809;52.974;-2.514;2023-05-06T04:38:22;1004.766080453637;;;11.921390560757162;43.89617126571765
46382;BME280;66809;52.974;-2.514;2023-05-06T04:40:22;1004.7728579387102;;;11.937310732135035;43.858452814037044
46382;BME280;66809;52.974;-2.514;2023-05-06T04:42:22;1004.7798316184043;;;11.955081529498996;43.80622244198946
46382;BME280;66809;52.974;-2.514;2023-05-06T04:44:22;1004.7861545599902;;;11.975238557956784;43.752909600444596
46382;BME280;66809;52.974;-2.514;2023-05-06T04:46:22;1004.7908560892597;;;11.994563771880737;43.6982177812932
46382;BME280;66809;52.974;-2.514;2023-05-06T04:48:22;1004.7959521684885;;;12.012048927524212;43.64272780496796
46382;BME280;66809;52.974;-2.514;2023-05-06T04:50:22;1004.8020809258808;;;12.031884575787897;43.58594176084797
46382;BME280;66809;52.974;-2.514;2023-05-06T04:52:22;1004.8092762213295;;;12.049157567330768;43.533555493315234
46382;BME280;66809;52.974;-2.514;2023-05-06T04:54:22;1004.8167413114456;;;12.065094621382057;43.49058874238853
46382;BME280;66809;52.974;-2.514;2023-05-06T04:56:22;1004.8244040918773;;;12.075143876267216;43.44996609248651
46382;BME280;66809;52.974;-2.514;2023-05-06T04:58:22;1004.8328767178755;;;12.091568263269037;43.41348042129007
46382;BME280;66809;52.974;-2.514;2023-05-06T05:00:22;1004.8407724121656;;;12.111244315012836;43.37552760927706
46382;BME280;66809;52.974;-2.514;2023-05-06T05:02:22;1004.8490507682977;;;12.128838782760804;43.33866100487834
46382;BME280;66809;52.974;-2.514;2023-05-06T05:04:22;1004.8575910958418;;;12.154640066838175;43.299149208304215
46382;BME280;66809;52.974;-2.514;2023-05-06T05:06:22;1004.8660882849618;;;12.182609117881704;43.25157870310344
46382;BME280;66809;52.974;-2.514;2023-05-06T05:08:22;1004.8740469340461;;;12.211250340119891;43.21021722818068
46382;BME280;66809;52.974;-2.514;2023-05-06T05:10:22;1004.8816385547245;;;12.236087507385184;43.1739719340489
46382;BME280;66809;52.974;-2.514;2023-05-06T05:12:22;1004.887978960179;;;12.255554882488711;43.137831303365104
46382;BME280;66809;52.974;-2.514;2023-05-06T05:14:22;1004.8959221018059;;;12.268610607743119;43.0930376702613
46382;BME280;66809;52.974;-2.514;2023-05-06T05:16:22;1004.9039804378415;;;12.291983701469494;43.05833959522977
46382;BME280;66809;52.974;-2.514;2023-05-06T05:18:22;1004.9118993596683;;;12.301884351593417;43.03598826144309
46382;BME280;66809;52.974;-2.514;2023-05-06T05:20:23;1004.9191945753752;;;12.321997806340239;43.01520788018706
46382;BME280;66809;52.974;-2.514;2023-05-06T05:22:22;1004.9267591241684;;;12.342242389438892;43.0058450806
46382;BME280;66809;52.974;-2.514;2023-05-06T05:24:22;1004.9337947684977;;;12.364530874084318;42.98607422777304
46382;BME280;66809;52.974;-2.514;2023-05-06T05:26:22;1004.9426403624492;;;12.392931092344408;42.95597776906615
46382;BME280;66809;52.974;-2.514;2023-05-06T05:28:22;1004.9506657520354;;;12.415272151765004;42.91929497848411
46382;BME280;66809;52.974;-2.514;2023-05-06T05:30:22;1004.957864679364;;;12.445030217947826;42.87809179602447
46382;BME280;66809;52.974;-2.514;2023-05-06T05:32:22;1004.9634634751862;;;12.471589176881432;42.83631929667836
46382;BME280;66809;52.974;-2.514;2023-05-06T05:34:22;1004.9694757797384;;;12.51501627771064;42.798096539508116
46382;BME280;66809;52.974;-2.514;2023-05-06T05:36:22;1004.9755860782291;;;12.551696410406995;42.766628251492506
46382;BME280;66809;52.974;-2.514;2023-05-06T05:38:22;1004.9812277054808;;;12.580909522086245;42.74133432160362
46382;BME280;66809;52.974;-2.514;2023-05-06T05:40:22;1004.9862140794291;;;12.609703280800511;42.7239941394348
46382;BME280;66809;52.974;-2.514;2023-05-06T05:42:22;1004.9917297723792;;;12.64031269309978;42.71589587270124
46382;BME280;66809;52.974;-2.514;2023-05-06T05:44:22;1004.997713989451;;;12.663754238358651;42.710348754752815
46382;BME280;66809;52.974;-2.514;2023-05-06T05:46:22;1005.0059058938127;;;12.677106097878243;42.710810206301424
46382;BME280;66809;52.974;-2.514;2023-05-06T05:48:22;1005.0155566763244;;;12.700942562899796;42.71442423014777
46382;BME280;66809;52.974;-2.514;2023-05-06T05:50:22;1005.0245112510333;;;12.714899409793341;42.71862839376898
46382;BME280;66809;52.974;-2.514;2023-05-06T05:52:22;1005.0328416290345;;;12.730856010195536;42.71780903809319
46382;BME280;66809;52.974;-2.514;2023-05-06T05:54:22;1005.0414446721809;;;12.756120892257977;42.710976463317124
46382;BME280;66809;52.974;-2.514;2023-05-06T05:56:22;1005.0492397432434;;;12.777982119559551;42.71291000906763
46382;BME280;66809;52.974;-2.514;2023-05-06T05:58:22;1005.0572879184638;;;12.800162641894385;42.71514518170741
46382;BME280;66809;52.974;-2.514;2023-05-06T06:00:22;1005.0659944567441;;;12.818303876648649;42.71521198954147
46382;BME280;66809;52.974;-2.514;2023-05-06T06:02:22;1005.0762642551852;;;12.843542882247293;42.70591766493412
46382;BME280;66809;52.974;-2.514;2023-05-06T06:04:22;1005.0868395691971;;;12.876420319718893;42.69790472253266
46382;BME280;66809;52.974;-2.514;2023-05-06T06:06:22;1005.0982916940866;;;12.899376123413102;42.69905383821709
46382;BME280;66809;52.974;-2.514;2023-05-06T06:08:22;1005.1099264474523;;;12.91944373837888;42.68611792633041
46382;BME280;66809;52.974;-2.514;2023-05-06T06:10:22;1005.1209824627152;;;12.948144517215182;42.675453170141814
46382;BME280;66809;52.974;-2.514;2023-05-06T06:12:22;1005.1329128313075;;;12.977537208570515;42.662918779300206
46382;BME280;66809;52.974;-2.514;2023-05-06T06:14:22;1005.1429135677078;;;13.00579011609312;42.6439672630451
46382;BME280;66809;52.974;-2.514;2023-05-06T06:16:22;1005.151509401622;;;13.038264986989423;42.632012589184534
46382;BME280;66809;52.974;-2.514;2023-05-06T06:18:22;1005.1595249349494;;;13.061793606297782;42.6252663218017
46382;BME280;66809;52.974;-2.514;2023-05-06T06:20:22;1005.1668115447823;;;13.090193372687327;42.615954220312794
46382;BME280;66809;52.974;-2.514;2023-05-06T06:22:22;1005.1727857091705;;;13.10642809248796;42.594610988412995
46382;BME280;66809;52.974;-2.514;2023-05-06T06:24:23;1005.179499902911;;;13.122898089371281;42.578390145039926
46382;BME280;66809;52.974;-2.514;2023-05-06T06:26:22;1005.1866476408397;;;13.147561063306906;42.57104094515505
46382;BME280;66809;52.974;-2.514;2023-05-06T06:28:22;1005.1944032834692;;;13.164965949793002;42.56260469981454
46382;BME280;66809;52.974;-2.514;2023-05-06T06:30:22;1005.2026664035333;;;13.188695581850677;42.55189575138488
46382;BME280;66809;52.974;-2.514;2023-05-06T06:32:22;1005.2102312965324;;;13.213542718542937;42.530935161094476
46382;BME280;66809;52.974;-2.514;2023-05-06T06:34:22;1005.2181065586454;;;13.229417700410766;42.50425658659976
46382;BME280;66809;52.974;-2.514;2023-05-06T06:36:22;1005.2252834464244;;;13.246471240798842;42.47718325191123
46382;BME280;66809;52.974;-2.514;2023-05-06T06:38:22;1005.23343101871;;;13.283756797745674;42.44161968298688
46382;BME280;66809;52.974;-2.514;2023-05-06T06:40:22;1005.2422425811299;;;13.325417050355883;42.399746263381516
46382;BME280;66809;52.974;-2.514;2023-05-06T06:42:22;1005.2508366228157;;;13.35265423746946;42.35541798638495
46382;BME280;66809;52.974;-2.514;2023-05-06T06:44:22;1005.2590347533035;;;13.39226656033059;42.30910777341622
46382;BME280;66809;52.974;-2.514;2023-05-06T06:46:22;1005.266232783792;;;13.444615318295606;42.26893574153814
46382;BME280;66809;52.974;-2.514;2023-05-06T06:48:22;1005.2725007115283;;;13.482801511649546;42.21543345959719
46382;BME280;66809;52.974;-2.514;2023-05-06T06:50:22;1005.2796832336591;;;13.53039681795831;42.151747215907555
46382;BME280;66809;52.974;-2.514;2023-05-06T06:52:22;1005.2878838823217;;;13.579191452106354;42.10265633005349
46382;BME280;66809;52.974;-2.514;2023-05-06T06:54:22;1005.2959069500633;;;13.61924079333161;42.050086908297565
46382;BME280;66809;52.974;-2.514;2023-05-06T06:56:22;1005.3046983941371;;;13.664575922640115;41.990307376006086
46382;BME280;66809;52.974;-2.514;2023-05-06T06:58:22;1005.3120430618844;;;13.710322785860422;41.92707667152456
46382;BME280;66809;52.974;-2.514;2023-05-06T07:00:22;1005.3184276567958;;;13.760293838306103;41.85641381002589
46382;BME280;66809;52.974;-2.514;2023-05-06T07:02:22;1005.3233098307293;;;13.792245659021624;41.7912482363043
46382;BME280;66809;52.974;-2.514;2023-05-06T07:04:22;1005.3275834654315;;;13.825825325182642;41.72657108354693
46382;BME280;66809;52.974;-2.514;2023-05-06T07:06:22;1005.3305761170362;;;13.863850522525075;41.654586771817655
46382;BME280;66809;52.974;-2.514;2023-05-06T07:08:22;1005.3328334184823;;;13.907385454485071;41.61184582248022
46382;BME280;66809;52.974;-2.514;2023-05-06T07:10:22;1005.33652357047;;;13.944900377036436;41.56970869353411
46382;BME280;66809;52.974;-2.514;2023-05-06T07:12:22;1005.3392513392242;;;13.983389982627038;41.53083573997558